MSC Ditte — D5LP2 — position and weather

sailwx.info

Track history (hours):
 
Tides and Currents Weather Stations Pressure Air Temp Water Temp Dewpoint Dewpoint Depression Visibility Wind Speed Wind Dir Waves Ship Positions

MSC Ditte

Last reported at 2018-Feb-21 05:14 UTC. Time now 2018-Feb-21 09:45 UTC.
Position N 51°54' E 003°25'.

Length 398 m; draft 10.6 m.

Type: Ship (hazmat cat A). MMSI: 636017569.

Date/timePositionNaut miles runAvg speedWind from/ knotsBaromVisibWave heightAir tempDewpointWater temp
2018-Feb-21 05:14N 51°54' E 003°25'0 0.1
2018-Feb-21 03:50N 51°54' E 003°25'0 0.1
2018-Feb-21 01:38N 51°54' E 003°25'0 0.0
2018-Feb-21 01:20N 51°54' E 003°25'0 0.0
2018-Feb-21 00:47N 51°54' E 003°25'0 0.0
2018-Feb-21 00:26N 51°54' E 003°25'0 0.0
2018-Feb-20 23:56N 51°54' E 003°25'0 0.0
2018-Feb-20 23:14N 51°54' E 003°25'0 0.0
2018-Feb-20 22:53N 51°54' E 003°25'0 0.0
2018-Feb-20 21:14N 51°54' E 003°25'0 0.0
2018-Feb-20 20:20N 51°54' E 003°25'0 0.1
2018-Feb-20 17:47N 51°54' E 003°25'0 0.2
2018-Feb-20 17:17N 51°54' E 003°25'0 0.5
2018-Feb-20 16:59N 51°54' E 003°25'5 9.7
2018-Feb-20 16:30N 51°50' E 003°21'713.1
2018-Feb-20 16:00N 51°45' E 003°15'510.0
2018-Feb-20 15:30N 51°40' E 003°12'815.6
2018-Feb-20 15:00N 51°33' E 003°08'816.2
2018-Feb-20 14:30N 51°27' E 002°60'511.0
2018-Feb-20 14:00N 51°24' E 003°08'713.7
2018-Feb-20 13:30N 51°24' E 003°19'714.1
2018-Feb-20 13:00N 51°25' E 003°30'5 9.6
2018-Feb-20 12:30N 51°26' E 003°37'511.1
2018-Feb-20 12:00N 51°23' E 003°44'612.3
2018-Feb-20 11:30N 51°21' E 003°54'612.8
2018-Feb-20 11:00N 51°26' E 004°00'612.1
2018-Feb-20 10:30N 51°22' E 004°08'5 9.7
2018-Feb-20 10:00N 51°21' E 004°15'3 6.9
2018-Feb-20 09:30N 51°18' E 004°16'0 0.4
2018-Feb-20 09:00N 51°17' E 004°15'0 0.0
2018-Feb-20 08:30N 51°17' E 004°15'0 0.0
2018-Feb-20 08:00N 51°17' E 004°15'0 0.0
2018-Feb-20 07:27N 51°17' E 004°15'0 0.0
2018-Feb-20 07:00N 51°17' E 004°15'0 0.0
2018-Feb-20 06:30N 51°17' E 004°15'0 0.0
2018-Feb-20 06:00N 51°17' E 004°15'0 0.0
2018-Feb-20 05:30N 51°17' E 004°15'0 0.0
2018-Feb-20 04:57N 51°17' E 004°15'0 0.0
2018-Feb-20 04:30N 51°17' E 004°15'0 0.0
2018-Feb-20 04:00N 51°17' E 004°15'0 0.0
2018-Feb-20 03:30N 51°17' E 004°15'0 0.0
2018-Feb-20 03:00N 51°17' E 004°15'0 0.0
2018-Feb-20 02:27N 51°17' E 004°15'0 0.0
2018-Feb-20 02:00N 51°17' E 004°15'0 0.0
2018-Feb-20 01:30N 51°17' E 004°15'0 0.0
2018-Feb-20 01:00N 51°17' E 004°15'0 0.0
2018-Feb-20 00:30N 51°17' E 004°15'0 0.0
2018-Feb-19 23:57N 51°17' E 004°15'0 0.0
2018-Feb-19 23:27N 51°17' E 004°15'0 0.0
2018-Feb-19 23:00N 51°17' E 004°15'0 0.0
2018-Feb-19 22:30N 51°17' E 004°15'0 0.0
2018-Feb-19 22:00N 51°17' E 004°15'0 0.0
2018-Feb-19 21:24N 51°17' E 004°15'0 0.0
2018-Feb-19 20:54N 51°17' E 004°15'0 0.0
2018-Feb-19 20:30N 51°17' E 004°15'0 0.0
2018-Feb-19 20:00N 51°17' E 004°15'0 0.0
2018-Feb-19 19:30N 51°17' E 004°15'0 0.0
2018-Feb-19 18:54N 51°17' E 004°15'0 0.0
2018-Feb-19 18:30N 51°17' E 004°15'0 0.0
2018-Feb-19 17:54N 51°17' E 004°15'0 0.0
2018-Feb-19 17:30N 51°17' E 004°15'0 0.0
2018-Feb-19 16:54N 51°17' E 004°15'0 0.0
2018-Feb-19 16:30N 51°17' E 004°15'0 0.0
2018-Feb-19 15:54N 51°17' E 004°15'0 0.0
2018-Feb-19 15:30N 51°17' E 004°15'0 0.0
2018-Feb-19 14:57N 51°17' E 004°15'0 0.0
2018-Feb-19 14:30N 51°17' E 004°15'0 0.0
2018-Feb-19 14:00N 51°17' E 004°15'0 0.0
2018-Feb-19 13:30N 51°17' E 004°15'0 0.0
2018-Feb-19 13:00N 51°17' E 004°15'0 0.0
2018-Feb-19 12:30N 51°17' E 004°15'0 0.0
2018-Feb-19 12:00N 51°17' E 004°15'0 0.0
2018-Feb-19 11:27N 51°17' E 004°15'0 0.0
2018-Feb-19 10:57N 51°17' E 004°15'0 0.0
2018-Feb-19 10:30N 51°17' E 004°15'0 0.0
2018-Feb-19 10:00N 51°17' E 004°15'0 0.0
2018-Feb-19 09:30N 51°17' E 004°15'0 0.0
2018-Feb-19 08:57N 51°17' E 004°15'0 0.0
2018-Feb-19 08:30N 51°17' E 004°15'0 0.0
2018-Feb-19 07:57N 51°17' E 004°15'0 0.0
2018-Feb-19 07:30N 51°17' E 004°15'0 0.0
2018-Feb-19 07:00N 51°17' E 004°15'0 0.0
2018-Feb-19 06:30N 51°17' E 004°15'0 0.0
2018-Feb-19 06:00N 51°17' E 004°15'0 0.0
2018-Feb-19 05:27N 51°17' E 004°15'0 0.0
2018-Feb-19 05:00N 51°17' E 004°15'0 0.0
2018-Feb-19 04:27N 51°17' E 004°15'0 0.0
2018-Feb-19 03:57N 51°17' E 004°15'0 0.0
2018-Feb-19 03:30N 51°17' E 004°15'0 0.0
2018-Feb-19 03:00N 51°17' E 004°15'0 0.0
2018-Feb-19 02:27N 51°17' E 004°15'0 0.0
2018-Feb-19 01:57N 51°17' E 004°15'0 0.0
2018-Feb-19 01:30N 51°17' E 004°15'0 0.0
2018-Feb-19 01:00N 51°17' E 004°15'0 0.0
2018-Feb-19 00:30N 51°17' E 004°15'0 0.0
2018-Feb-19 00:00N 51°17' E 004°15'0 0.0
2018-Feb-18 23:30N 51°17' E 004°15'0 0.0
2018-Feb-18 23:00N 51°17' E 004°15'0 0.0
2018-Feb-18 22:30N 51°17' E 004°15'0 0.0
2018-Feb-18 22:00N 51°17' E 004°15'0 0.0
2018-Feb-18 21:27N 51°17' E 004°15'0 0.0
2018-Feb-18 21:00N 51°17' E 004°15'0 0.0
2018-Feb-18 20:30N 51°17' E 004°15'0 0.0
2018-Feb-18 19:57N 51°17' E 004°15'0 0.0
2018-Feb-18 19:27N 51°17' E 004°15'0 0.0
2018-Feb-18 19:00N 51°17' E 004°15'0 0.0
2018-Feb-18 18:30N 51°17' E 004°15'0 0.0
2018-Feb-18 18:00N 51°17' E 004°15'0 0.0
2018-Feb-18 17:30N 51°17' E 004°15'0 0.0
2018-Feb-18 17:00N 51°17' E 004°15'0 0.0
2018-Feb-18 16:30N 51°17' E 004°15'0 0.0
2018-Feb-18 16:00N 51°17' E 004°15'0 0.0
2018-Feb-18 15:30N 51°17' E 004°15'0 0.0
2018-Feb-18 14:57N 51°17' E 004°15'0 0.0
2018-Feb-18 14:30N 51°17' E 004°15'0 0.0
2018-Feb-18 14:00N 51°17' E 004°15'0 0.0
2018-Feb-18 13:30N 51°17' E 004°15'1 1.0
2018-Feb-18 13:00N 51°18' E 004°16'1 1.8
2018-Feb-18 12:30N 51°19' E 004°16'3 7.0
2018-Feb-18 12:01N 51°22' E 004°13'5 9.8
2018-Feb-18 11:30N 51°22' E 004°06'611.5
2018-Feb-18 11:01N 51°26' E 003°59'612.4
2018-Feb-18 10:31N 51°21' E 003°53'611.9
2018-Feb-18 10:00N 51°23' E 003°44'510.2
2018-Feb-18 09:31N 51°26' E 003°38'5 9.2
2018-Feb-18 09:01N 51°25' E 003°31'714.7
2018-Feb-18 08:30N 51°24' E 003°19'714.7
2018-Feb-18 08:00N 51°24' E 003°07'714.4
2018-Feb-18 07:30N 51°25' E 002°56'713.5
2018-Feb-18 07:00N 51°24' E 002°45'5 9.5
2018-Feb-18 06:30N 51°22' E 002°38'3 5.8
2018-Feb-18 06:00N 51°22' E 002°34'4 8.2
2018-Feb-18 05:30N 51°21' E 002°27'4 8.6
2018-Feb-18 05:00N 51°20' E 002°21'510.2
2018-Feb-18 04:30N 51°19' E 002°13'611.0
2018-Feb-18 04:00N 51°22' E 002°04'815.3
2018-Feb-18 03:31N 51°27' E 001°56'714.8
2018-Feb-18 03:01N 51°34' E 001°50'714.4
2018-Feb-18 02:30N 51°40' E 001°46'714.9
2018-Feb-18 02:01N 51°48' E 001°44'612.6
2018-Feb-18 01:31N 51°52' E 001°37'4 7.4
2018-Feb-18 01:01N 51°55' E 001°33'713.5
2018-Feb-18 00:30N 51°56' E 001°22'2 5.0
2018-Feb-18 00:00N 51°57' E 001°19'0 0.3
2018-Feb-17 23:30N 51°57' E 001°19'0 0.0
2018-Feb-17 23:00N 51°57' E 001°19'0 0.0
2018-Feb-17 22:30N 51°57' E 001°19'0 0.0
2018-Feb-17 22:00N 51°57' E 001°19'0 0.0
2018-Feb-17 21:30N 51°57' E 001°19'0 0.0
2018-Feb-17 21:00N 51°57' E 001°19'0 0.0
2018-Feb-17 20:30N 51°57' E 001°19'0 0.0
2018-Feb-17 20:00N 51°57' E 001°19'0 0.0
2018-Feb-17 19:30N 51°57' E 001°19'0 0.0
2018-Feb-17 19:00N 51°57' E 001°19'0 0.0
2018-Feb-17 18:30N 51°57' E 001°19'0 0.0
2018-Feb-17 18:00N 51°57' E 001°19'0 0.0
2018-Feb-17 17:30N 51°57' E 001°19'0 0.0
2018-Feb-17 17:00N 51°57' E 001°19'0 0.0
2018-Feb-17 16:30N 51°57' E 001°19'0 0.0
2018-Feb-17 16:00N 51°57' E 001°19'0 0.0
2018-Feb-17 15:30N 51°57' E 001°19'0 0.0
2018-Feb-17 15:00N 51°57' E 001°19'0 0.0
2018-Feb-17 14:30N 51°57' E 001°19'0 0.0
2018-Feb-17 14:00N 51°57' E 001°19'0 0.0
2018-Feb-17 13:30N 51°57' E 001°19'0 0.0
2018-Feb-17 13:00N 51°57' E 001°19'0 0.0
2018-Feb-17 12:30N 51°57' E 001°19'0 0.0
2018-Feb-17 12:00N 51°57' E 001°19'0 0.0
2018-Feb-17 11:30N 51°57' E 001°19'0 0.0
2018-Feb-17 11:00N 51°57' E 001°19'0 0.0
2018-Feb-17 10:30N 51°57' E 001°19'0 0.0
2018-Feb-17 10:00N 51°57' E 001°19'0 0.0
2018-Feb-17 09:30N 51°57' E 001°19'0 0.0
2018-Feb-17 09:00N 51°57' E 001°19'0 0.0
2018-Feb-17 08:30N 51°57' E 001°19'0 0.0
2018-Feb-17 08:00N 51°57' E 001°19'0 0.0
2018-Feb-17 07:30N 51°57' E 001°19'0 0.0
2018-Feb-17 07:00N 51°57' E 001°19'0 0.0
2018-Feb-17 06:30N 51°57' E 001°19'0 0.0
2018-Feb-17 06:00N 51°57' E 001°19'0 0.0
2018-Feb-17 05:30N 51°57' E 001°19'0 0.0
2018-Feb-17 05:00N 51°57' E 001°19'0 0.0
2018-Feb-17 04:30N 51°57' E 001°19'0 0.0
2018-Feb-17 04:00N 51°57' E 001°19'0 0.0
2018-Feb-17 03:30N 51°57' E 001°19'0 0.0
2018-Feb-17 03:00N 51°57' E 001°19'0 0.0
2018-Feb-17 02:30N 51°57' E 001°19'0 0.0
2018-Feb-17 02:00N 51°57' E 001°19'0 0.0
2018-Feb-17 01:30N 51°57' E 001°19'0 0.0
2018-Feb-17 01:00N 51°57' E 001°19'0 0.0
2018-Feb-17 00:30N 51°57' E 001°19'0 0.0
2018-Feb-17 00:00N 51°57' E 001°19'0 0.0
2018-Feb-16 23:30N 51°57' E 001°19'0 0.0
2018-Feb-16 23:00N 51°57' E 001°19'0 0.0
2018-Feb-16 22:30N 51°57' E 001°19'0 0.0
2018-Feb-16 22:00N 51°57' E 001°19'0 0.0
2018-Feb-16 21:30N 51°57' E 001°19'0 0.0
2018-Feb-16 21:00N 51°57' E 001°19'0 0.0
2018-Feb-16 20:30N 51°57' E 001°19'0 0.0
2018-Feb-16 20:00N 51°57' E 001°19'0 0.0
2018-Feb-16 19:30N 51°57' E 001°19'0 0.0
2018-Feb-16 19:00N 51°57' E 001°19'0 0.0
2018-Feb-16 18:30N 51°57' E 001°19'0 0.0
2018-Feb-16 18:00N 51°57' E 001°19'0 0.0
2018-Feb-16 17:30N 51°57' E 001°19'0 0.0
2018-Feb-16 17:00N 51°57' E 001°19'0 0.0
2018-Feb-16 16:30N 51°57' E 001°19'0 0.0
2018-Feb-16 16:00N 51°57' E 001°19'0 0.3
2018-Feb-16 15:30N 51°57' E 001°19'2 4.6
2018-Feb-16 15:00N 51°56' E 001°22'611.6
2018-Feb-16 14:30N 51°56' E 001°31'611.2
2018-Feb-16 14:00N 51°52' E 001°37'4 8.0
2018-Feb-16 13:30N 51°53' E 001°43'2 3.9
2018-Feb-16 12:58N 51°56' E 001°42'0 0.3
2018-Feb-16 12:28N 51°55' E 001°42'0 0.3
2018-Feb-16 11:58N 51°55' E 001°42'0 0.1
2018-Feb-16 11:28N 51°55' E 001°42'0 0.0
2018-Feb-16 10:58N 51°55' E 001°42'0 0.0
2018-Feb-16 10:28N 51°55' E 001°42'0 0.0
2018-Feb-16 09:58N 51°55' E 001°42'0 0.0
2018-Feb-16 09:28N 51°55' E 001°42'0 0.0
2018-Feb-16 08:58N 51°55' E 001°42'0 0.0
2018-Feb-16 08:28N 51°55' E 001°42'0 0.0
2018-Feb-16 07:58N 51°55' E 001°42'0 0.2
2018-Feb-16 07:28N 51°55' E 001°42'0 0.1
2018-Feb-16 06:58N 51°55' E 001°42'0 0.1
2018-Feb-16 06:28N 51°55' E 001°42'0 0.0
2018-Feb-16 05:58N 51°55' E 001°42'0 0.0
2018-Feb-16 05:28N 51°56' E 001°42'0 0.0
2018-Feb-16 04:58N 51°56' E 001°42'0 0.0
2018-Feb-16 04:28N 51°56' E 001°42'0 0.0
2018-Feb-16 03:58N 51°56' E 001°42'0 0.0
2018-Feb-16 03:28N 51°56' E 001°42'0 0.0
2018-Feb-16 02:58N 51°56' E 001°42'0 0.0
2018-Feb-16 02:28N 51°56' E 001°42'0 0.0
2018-Feb-16 01:58N 51°56' E 001°42'0 0.0
2018-Feb-16 01:28N 51°56' E 001°42'0 0.0
2018-Feb-16 00:58N 51°56' E 001°42'0 0.0
2018-Feb-16 00:28N 51°56' E 001°42'0 0.0
2018-Feb-15 23:58N 51°56' E 001°42'0 0.1
2018-Feb-15 23:28N 51°55' E 001°42'0 0.3
2018-Feb-15 22:58N 51°55' E 001°42'0 0.1
2018-Feb-15 22:28N 51°55' E 001°42'0 0.1
2018-Feb-15 21:58N 51°55' E 001°42'0 0.0
2018-Feb-15 21:28N 51°55' E 001°42'0 0.0
2018-Feb-15 20:58N 51°55' E 001°42'0 0.0
2018-Feb-15 20:28N 51°55' E 001°42'0 0.0
2018-Feb-15 19:58N 51°55' E 001°42'0 0.2
2018-Feb-15 19:28N 51°55' E 001°42'0 0.2
2018-Feb-15 18:58N 51°55' E 001°42'0 0.1
2018-Feb-15 18:28N 51°56' E 001°42'0 0.0
2018-Feb-15 17:58N 51°56' E 001°42'0 0.0
2018-Feb-15 17:28N 51°56' E 001°42'0 0.0
2018-Feb-15 16:58N 51°56' E 001°42'0 0.0
2018-Feb-15 16:28N 51°56' E 001°42'0 0.1
2018-Feb-15 15:58N 51°56' E 001°42'0 0.0
2018-Feb-15 15:28N 51°56' E 001°42'0 0.0
2018-Feb-15 14:58N 51°56' E 001°42'0 0.0
2018-Feb-15 14:28N 51°56' E 001°42'0 0.3
2018-Feb-15 14:01N 51°55' E 001°42'2 4.2
2018-Feb-15 13:31N 51°54' E 001°45'713.1
2018-Feb-15 13:00N 51°48' E 001°49'815.7
2018-Feb-15 12:30N 51°40' E 001°50'714.7
2018-Feb-15 12:00N 51°33' E 001°52'713.6
2018-Feb-15 11:30N 51°28' E 001°59'713.8
2018-Feb-15 11:00N 51°21' E 001°59'816.8
2018-Feb-15 10:30N 51°15' E 001°51'817.0
2018-Feb-15 10:01N 51°08' E 001°43'917.6
2018-Feb-15 09:30N 51°01' E 001°34'918.0
2018-Feb-15 09:00N 50°54' E 001°26'916.9
2018-Feb-15 08:28N 50°45' E 001°23'816.6
2018-Feb-15 08:00N 50°38' E 001°16'2716.6
2018-Feb-15 06:24N 50°27' E 000°38'716.9
2018-Feb-15 06:00N 50°25' E 000°28'816.7
2018-Feb-15 05:30N 50°22' E 000°16'815.8
2018-Feb-15 05:00N 50°18' E 000°05'815.6
2018-Feb-15 04:30N 50°12' W 000°01'610.9
2018-Feb-15 04:00N 50°06' W 000°04'4 7.5
2018-Feb-15 03:30N 50°03' W 000°04'0 0.7
2018-Feb-15 03:00N 50°02' W 000°04'0 0.8
2018-Feb-15 02:30N 50°02' W 000°03'1 1.2
2018-Feb-15 02:00N 50°02' W 000°03'1 1.8
2018-Feb-15 01:30N 50°01' W 000°02'1 2.6
2018-Feb-15 01:00N 50°01' W 000°01'4 7.8
2018-Feb-15 00:30N 50°05' E 000°03'4 7.6
2018-Feb-15 00:01N 50°08' E 000°06'3 5.8
2018-Feb-14 23:30N 50°10' E 000°08'1 1.8
2018-Feb-14 23:00N 50°09' E 000°09'1 2.9
2018-Feb-14 22:30N 50°08' E 000°07'2 3.3
2018-Feb-14 22:00N 50°07' E 000°06'2 3.6
2018-Feb-14 21:30N 50°05' E 000°04'2 4.0
2018-Feb-14 21:00N 50°04' E 000°02'2 4.2
2018-Feb-14 20:30N 50°02' W 000°00'2 4.0
2018-Feb-14 20:00N 50°01' W 000°02'1 2.1
2018-Feb-14 19:31N 49°60' W 000°03'3 5.1
2018-Feb-14 19:00N 50°02' W 000°04'3 6.2
2018-Feb-14 18:30N 50°05' W 000°05'3 6.6
2018-Feb-14 18:00N 50°08' W 000°06'2 4.9
2018-Feb-14 17:30N 50°11' W 000°07'3 5.0
2018-Feb-14 17:00N 50°13' W 000°09'1 2.1
2018-Feb-14 16:30N 50°12' W 000°10'2 3.0
2018-Feb-14 15:59N 50°11' W 000°08'2 3.2
2018-Feb-14 15:30N 50°09' W 000°07'2 3.3
2018-Feb-14 15:00N 50°08' W 000°05'2 3.3
2018-Feb-14 14:30N 50°07' W 000°03'2 3.1
2018-Feb-14 14:00N 50°06' W 000°02'1 3.0
2018-Feb-14 13:30N 50°05' W 000°00'1 2.7
2018-Feb-14 13:00N 50°04' E 000°01'1 2.4
2018-Feb-14 12:30N 50°02' E 000°01'1 2.2
2018-Feb-14 12:00N 50°01' E 000°01'1 1.2
2018-Feb-14 11:30N 50°01' E 000°01'2 3.4
2018-Feb-14 11:00N 50°02' E 000°03'3 6.7
2018-Feb-14 10:30N 50°04' E 000°07'3 6.3
2018-Feb-14 10:00N 50°06' E 000°11'2 4.2
2018-Feb-14 09:30N 50°07' E 000°13'2 3.0
2018-Feb-14 09:00N 50°06' E 000°12'2 3.4
2018-Feb-14 08:30N 50°05' E 000°10'2 3.5
2018-Feb-14 08:00N 50°04' E 000°08'2 3.5
2018-Feb-14 07:30N 50°03' E 000°05'2 3.3
2018-Feb-14 07:00N 50°02' E 000°03'1 2.9
2018-Feb-14 06:30N 50°01' E 000°01'1 2.2
2018-Feb-14 06:00N 50°01' W 000°00'1 1.2
2018-Feb-14 05:30N 50°01' W 000°01'0 0.9
2018-Feb-14 05:00N 50°00' W 000°01'2 3.6
2018-Feb-14 04:30N 49°58' W 000°00'3 5.1
2018-Feb-14 04:00N 49°56' W 000°01'3 5.2
2018-Feb-14 03:30N 49°53' W 000°01'1 2.1
2018-Feb-14 03:00N 49°54' E 000°00'1 1.5
2018-Feb-14 02:30N 49°55' E 000°01'1 1.5
2018-Feb-14 02:00N 49°55' E 000°01'1 1.4
2018-Feb-14 01:30N 49°56' E 000°01'1 1.3
2018-Feb-14 01:00N 49°57' E 000°01'1 1.3
2018-Feb-14 00:30N 49°57' E 000°01'1 1.4
2018-Feb-14 00:00N 49°58' E 000°01'1 1.6
2018-Feb-13 23:30N 49°59' E 000°01'1 1.7
2018-Feb-13 23:00N 49°60' E 000°00'2 4.0
2018-Feb-13 22:30N 49°60' E 000°03'3 6.4
2018-Feb-13 22:00N 49°59' E 000°08'3 5.8
2018-Feb-13 21:30N 49°57' E 000°12'1 2.7
2018-Feb-13 21:00N 49°57' E 000°14'2 3.6
2018-Feb-13 20:30N 49°57' E 000°11'2 3.9
2018-Feb-13 20:00N 49°58' E 000°08'2 4.0
2018-Feb-13 19:30N 49°58' E 000°05'2 4.0
2018-Feb-13 19:00N 49°58' E 000°02'2 3.8
2018-Feb-13 18:30N 49°58' W 000°01'2 3.4
2018-Feb-13 18:00N 49°58' W 000°03'1 2.9
2018-Feb-13 17:30N 49°59' W 000°05'1 2.6
2018-Feb-13 17:00N 50°00' W 000°06'3 5.8
2018-Feb-13 16:30N 50°03' W 000°08'3 5.7
2018-Feb-13 16:00N 50°06' W 000°10'3 5.2
2018-Feb-13 15:31N 50°08' W 000°11'3 5.5
2018-Feb-13 15:00N 50°10' W 000°13'1 1.3
2018-Feb-13 14:30N 50°10' W 000°13'1 2.5
2018-Feb-13 14:00N 50°09' W 000°12'1 2.9
2018-Feb-13 13:30N 50°07' W 000°11'2 3.3
2018-Feb-13 13:00N 50°06' W 000°10'2 3.5
2018-Feb-13 12:30N 50°05' W 000°08'2 3.7
2018-Feb-13 12:00N 50°03' W 000°07'2 3.5
2018-Feb-13 11:30N 50°01' W 000°06'2 3.2
2018-Feb-13 11:00N 49°60' W 000°06'2 4.0
2018-Feb-13 10:30N 50°02' W 000°07'4 7.3
2018-Feb-13 10:00N 50°05' W 000°08'5 9.9
2018-Feb-13 09:30N 50°10' W 000°06'611.4
2018-Feb-13 09:00N 50°15' W 000°03'5 9.8
2018-Feb-13 08:30N 50°19' W 000°07'5 9.1
2018-Feb-13 08:00N 50°18' W 000°14'918.2
2018-Feb-13 07:30N 50°16' W 000°28'918.0
2018-Feb-13 07:00N 50°14' W 000°42'918.3
2018-Feb-13 06:30N 50°11' W 000°55'918.1
2018-Feb-13 06:00N 50°09' W 001°08'918.5
2018-Feb-13 05:30N 50°06' W 001°22'918.5
2018-Feb-13 05:00N 50°04' W 001°37'918.3
2018-Feb-13 04:30N 50°02' W 001°50'918.5
2018-Feb-13 04:00N 49°60' W 002°04'2118.8
2018-Feb-13 02:52N 49°53' W 002°35'818.7
2018-Feb-13 02:27N 49°51' W 002°47'1218.5
2018-Feb-13 01:48N 49°48' W 003°05'518.5
2018-Feb-13 01:31N 49°46' W 003°13'918.4
2018-Feb-13 01:01N 49°44' W 003°27'1218.6
2018-Feb-13 00:23N 49°42' W 003°45'66617.5
2018-Feb-11 10:22N 39°31' W 009°57'719.2
2018-Feb-11 10:01N 39°24' W 009°56'1019.3
2018-Feb-11 09:30N 39°15' W 009°55'1019.1
2018-Feb-11 09:00N 39°05' W 009°54'919.0
2018-Feb-11 08:31N 38°56' W 009°53'1019.1
2018-Feb-11 08:01N 38°46' W 009°51'918.9
2018-Feb-11 07:31N 38°37' W 009°50'1019.1
2018-Feb-11 07:00N 38°27' W 009°48'918.8
2018-Feb-11 06:30N 38°18' W 009°45'918.2
2018-Feb-11 06:01N 38°09' W 009°42'918.3
2018-Feb-11 05:30N 38°00' W 009°40'  
Track history (hours):
 
Tides and Currents Weather Stations Pressure Air Temp Water Temp Dewpoint Dewpoint Depression Visibility Wind Speed Wind Dir Waves Ship Positions

MSC Ditte

Last reported at 2018-Feb-21 05:14 UTC. Time now 2018-Feb-21 09:45 UTC.
Position N 51°54' E 003°25'.

Length 398 m; draft 10.6 m.

Type: Ship (hazmat cat A). MMSI: 636017569.

Date/timePositionNaut miles runAvg speedWind from/ knotsBaromVisibWave heightAir tempDewpointWater temp
2018-Feb-21 05:14N 51°54' E 003°25'0 0.1
2018-Feb-21 03:50N 51°54' E 003°25'0 0.1
2018-Feb-21 01:38N 51°54' E 003°25'0 0.0
2018-Feb-21 01:20N 51°54' E 003°25'0 0.0
2018-Feb-21 00:47N 51°54' E 003°25'0 0.0
2018-Feb-21 00:26N 51°54' E 003°25'0 0.0
2018-Feb-20 23:56N 51°54' E 003°25'0 0.0
2018-Feb-20 23:14N 51°54' E 003°25'0 0.0
2018-Feb-20 22:53N 51°54' E 003°25'0 0.0
2018-Feb-20 21:14N 51°54' E 003°25'0 0.0
2018-Feb-20 20:20N 51°54' E 003°25'0 0.1
2018-Feb-20 17:47N 51°54' E 003°25'0 0.2
2018-Feb-20 17:17N 51°54' E 003°25'0 0.5
2018-Feb-20 16:59N 51°54' E 003°25'5 9.7
2018-Feb-20 16:30N 51°50' E 003°21'713.1
2018-Feb-20 16:00N 51°45' E 003°15'510.0
2018-Feb-20 15:30N 51°40' E 003°12'815.6
2018-Feb-20 15:00N 51°33' E 003°08'816.2
2018-Feb-20 14:30N 51°27' E 002°60'511.0
2018-Feb-20 14:00N 51°24' E 003°08'713.7
2018-Feb-20 13:30N 51°24' E 003°19'714.1
2018-Feb-20 13:00N 51°25' E 003°30'5 9.6
2018-Feb-20 12:30N 51°26' E 003°37'511.1
2018-Feb-20 12:00N 51°23' E 003°44'612.3
2018-Feb-20 11:30N 51°21' E 003°54'612.8
2018-Feb-20 11:00N 51°26' E 004°00'612.1
2018-Feb-20 10:30N 51°22' E 004°08'5 9.7
2018-Feb-20 10:00N 51°21' E 004°15'3 6.9
2018-Feb-20 09:30N 51°18' E 004°16'0 0.4
2018-Feb-20 09:00N 51°17' E 004°15'0 0.0
2018-Feb-20 08:30N 51°17' E 004°15'0 0.0
2018-Feb-20 08:00N 51°17' E 004°15'0 0.0
2018-Feb-20 07:27N 51°17' E 004°15'0 0.0
2018-Feb-20 07:00N 51°17' E 004°15'0 0.0
2018-Feb-20 06:30N 51°17' E 004°15'0 0.0
2018-Feb-20 06:00N 51°17' E 004°15'0 0.0
2018-Feb-20 05:30N 51°17' E 004°15'0 0.0
2018-Feb-20 04:57N 51°17' E 004°15'0 0.0
2018-Feb-20 04:30N 51°17' E 004°15'0 0.0
2018-Feb-20 04:00N 51°17' E 004°15'0 0.0
2018-Feb-20 03:30N 51°17' E 004°15'0 0.0
2018-Feb-20 03:00N 51°17' E 004°15'0 0.0
2018-Feb-20 02:27N 51°17' E 004°15'0 0.0
2018-Feb-20 02:00N 51°17' E 004°15'0 0.0
2018-Feb-20 01:30N 51°17' E 004°15'0 0.0
2018-Feb-20 01:00N 51°17' E 004°15'0 0.0
2018-Feb-20 00:30N 51°17' E 004°15'0 0.0
2018-Feb-19 23:57N 51°17' E 004°15'0 0.0
2018-Feb-19 23:27N 51°17' E 004°15'0 0.0
2018-Feb-19 23:00N 51°17' E 004°15'0 0.0
2018-Feb-19 22:30N 51°17' E 004°15'0 0.0
2018-Feb-19 22:00N 51°17' E 004°15'0 0.0
2018-Feb-19 21:24N 51°17' E 004°15'0 0.0
2018-Feb-19 20:54N 51°17' E 004°15'0 0.0
2018-Feb-19 20:30N 51°17' E 004°15'0 0.0
2018-Feb-19 20:00N 51°17' E 004°15'0 0.0
2018-Feb-19 19:30N 51°17' E 004°15'0 0.0
2018-Feb-19 18:54N 51°17' E 004°15'0 0.0
2018-Feb-19 18:30N 51°17' E 004°15'0 0.0
2018-Feb-19 17:54N 51°17' E 004°15'0 0.0
2018-Feb-19 17:30N 51°17' E 004°15'0 0.0
2018-Feb-19 16:54N 51°17' E 004°15'0 0.0
2018-Feb-19 16:30N 51°17' E 004°15'0 0.0
2018-Feb-19 15:54N 51°17' E 004°15'0 0.0
2018-Feb-19 15:30N 51°17' E 004°15'0 0.0
2018-Feb-19 14:57N 51°17' E 004°15'0 0.0
2018-Feb-19 14:30N 51°17' E 004°15'0 0.0
2018-Feb-19 14:00N 51°17' E 004°15'0 0.0
2018-Feb-19 13:30N 51°17' E 004°15'0 0.0
2018-Feb-19 13:00N 51°17' E 004°15'0 0.0
2018-Feb-19 12:30N 51°17' E 004°15'0 0.0
2018-Feb-19 12:00N 51°17' E 004°15'0 0.0
2018-Feb-19 11:27N 51°17' E 004°15'0 0.0
2018-Feb-19 10:57N 51°17' E 004°15'0 0.0
2018-Feb-19 10:30N 51°17' E 004°15'0 0.0
2018-Feb-19 10:00N 51°17' E 004°15'0 0.0
2018-Feb-19 09:30N 51°17' E 004°15'0 0.0
2018-Feb-19 08:57N 51°17' E 004°15'0 0.0
2018-Feb-19 08:30N 51°17' E 004°15'0 0.0
2018-Feb-19 07:57N 51°17' E 004°15'0 0.0
2018-Feb-19 07:30N 51°17' E 004°15'0 0.0
2018-Feb-19 07:00N 51°17' E 004°15'0 0.0
2018-Feb-19 06:30N 51°17' E 004°15'0 0.0
2018-Feb-19 06:00N 51°17' E 004°15'0 0.0
2018-Feb-19 05:27N 51°17' E 004°15'0 0.0
2018-Feb-19 05:00N 51°17' E 004°15'0 0.0
2018-Feb-19 04:27N 51°17' E 004°15'0 0.0
2018-Feb-19 03:57N 51°17' E 004°15'0 0.0
2018-Feb-19 03:30N 51°17' E 004°15'0 0.0
2018-Feb-19 03:00N 51°17' E 004°15'0 0.0
2018-Feb-19 02:27N 51°17' E 004°15'0 0.0
2018-Feb-19 01:57N 51°17' E 004°15'0 0.0
2018-Feb-19 01:30N 51°17' E 004°15'0 0.0
2018-Feb-19 01:00N 51°17' E 004°15'0 0.0
2018-Feb-19 00:30N 51°17' E 004°15'0 0.0
2018-Feb-19 00:00N 51°17' E 004°15'0 0.0
2018-Feb-18 23:30N 51°17' E 004°15'0 0.0
2018-Feb-18 23:00N 51°17' E 004°15'0 0.0
2018-Feb-18 22:30N 51°17' E 004°15'0 0.0
2018-Feb-18 22:00N 51°17' E 004°15'0 0.0
2018-Feb-18 21:27N 51°17' E 004°15'0 0.0
2018-Feb-18 21:00N 51°17' E 004°15'0 0.0
2018-Feb-18 20:30N 51°17' E 004°15'0 0.0
2018-Feb-18 19:57N 51°17' E 004°15'0 0.0
2018-Feb-18 19:27N 51°17' E 004°15'0 0.0
2018-Feb-18 19:00N 51°17' E 004°15'0 0.0
2018-Feb-18 18:30N 51°17' E 004°15'0 0.0
2018-Feb-18 18:00N 51°17' E 004°15'0 0.0
2018-Feb-18 17:30N 51°17' E 004°15'0 0.0
2018-Feb-18 17:00N 51°17' E 004°15'0 0.0
2018-Feb-18 16:30N 51°17' E 004°15'0 0.0
2018-Feb-18 16:00N 51°17' E 004°15'0 0.0
2018-Feb-18 15:30N 51°17' E 004°15'0 0.0
2018-Feb-18 14:57N 51°17' E 004°15'0 0.0
2018-Feb-18 14:30N 51°17' E 004°15'0 0.0
2018-Feb-18 14:00N 51°17' E 004°15'0 0.0
2018-Feb-18 13:30N 51°17' E 004°15'1 1.0
2018-Feb-18 13:00N 51°18' E 004°16'1 1.8
2018-Feb-18 12:30N 51°19' E 004°16'3 7.0
2018-Feb-18 12:01N 51°22' E 004°13'5 9.8
2018-Feb-18 11:30N 51°22' E 004°06'611.5
2018-Feb-18 11:01N 51°26' E 003°59'612.4
2018-Feb-18 10:31N 51°21' E 003°53'611.9
2018-Feb-18 10:00N 51°23' E 003°44'510.2
2018-Feb-18 09:31N 51°26' E 003°38'5 9.2
2018-Feb-18 09:01N 51°25' E 003°31'714.7
2018-Feb-18 08:30N 51°24' E 003°19'714.7
2018-Feb-18 08:00N 51°24' E 003°07'714.4
2018-Feb-18 07:30N 51°25' E 002°56'713.5
2018-Feb-18 07:00N 51°24' E 002°45'5 9.5
2018-Feb-18 06:30N 51°22' E 002°38'3 5.8
2018-Feb-18 06:00N 51°22' E 002°34'4 8.2
2018-Feb-18 05:30N 51°21' E 002°27'4 8.6
2018-Feb-18 05:00N 51°20' E 002°21'510.2
2018-Feb-18 04:30N 51°19' E 002°13'611.0
2018-Feb-18 04:00N 51°22' E 002°04'815.3
2018-Feb-18 03:31N 51°27' E 001°56'714.8
2018-Feb-18 03:01N 51°34' E 001°50'714.4
2018-Feb-18 02:30N 51°40' E 001°46'714.9
2018-Feb-18 02:01N 51°48' E 001°44'612.6
2018-Feb-18 01:31N 51°52' E 001°37'4 7.4
2018-Feb-18 01:01N 51°55' E 001°33'713.5
2018-Feb-18 00:30N 51°56' E 001°22'2 5.0
2018-Feb-18 00:00N 51°57' E 001°19'0 0.3
2018-Feb-17 23:30N 51°57' E 001°19'0 0.0
2018-Feb-17 23:00N 51°57' E 001°19'0 0.0
2018-Feb-17 22:30N 51°57' E 001°19'0 0.0
2018-Feb-17 22:00N 51°57' E 001°19'0 0.0
2018-Feb-17 21:30N 51°57' E 001°19'0 0.0
2018-Feb-17 21:00N 51°57' E 001°19'0 0.0
2018-Feb-17 20:30N 51°57' E 001°19'0 0.0
2018-Feb-17 20:00N 51°57' E 001°19'0 0.0
2018-Feb-17 19:30N 51°57' E 001°19'0 0.0
2018-Feb-17 19:00N 51°57' E 001°19'0 0.0
2018-Feb-17 18:30N 51°57' E 001°19'0 0.0
2018-Feb-17 18:00N 51°57' E 001°19'0 0.0
2018-Feb-17 17:30N 51°57' E 001°19'0 0.0
2018-Feb-17 17:00N 51°57' E 001°19'0 0.0
2018-Feb-17 16:30N 51°57' E 001°19'0 0.0
2018-Feb-17 16:00N 51°57' E 001°19'0 0.0
2018-Feb-17 15:30N 51°57' E 001°19'0 0.0
2018-Feb-17 15:00N 51°57' E 001°19'0 0.0
2018-Feb-17 14:30N 51°57' E 001°19'0 0.0
2018-Feb-17 14:00N 51°57' E 001°19'0 0.0
2018-Feb-17 13:30N 51°57' E 001°19'0 0.0
2018-Feb-17 13:00N 51°57' E 001°19'0 0.0
2018-Feb-17 12:30N 51°57' E 001°19'0 0.0
2018-Feb-17 12:00N 51°57' E 001°19'0 0.0
2018-Feb-17 11:30N 51°57' E 001°19'0 0.0
2018-Feb-17 11:00N 51°57' E 001°19'0 0.0
2018-Feb-17 10:30N 51°57' E 001°19'0 0.0
2018-Feb-17 10:00N 51°57' E 001°19'0 0.0
2018-Feb-17 09:30N 51°57' E 001°19'0 0.0
2018-Feb-17 09:00N 51°57' E 001°19'0 0.0
2018-Feb-17 08:30N 51°57' E 001°19'0 0.0
2018-Feb-17 08:00N 51°57' E 001°19'0 0.0
2018-Feb-17 07:30N 51°57' E 001°19'0 0.0
2018-Feb-17 07:00N 51°57' E 001°19'0 0.0
2018-Feb-17 06:30N 51°57' E 001°19'0 0.0
2018-Feb-17 06:00N 51°57' E 001°19'0 0.0
2018-Feb-17 05:30N 51°57' E 001°19'0 0.0
2018-Feb-17 05:00N 51°57' E 001°19'0 0.0
2018-Feb-17 04:30N 51°57' E 001°19'0 0.0
2018-Feb-17 04:00N 51°57' E 001°19'0 0.0
2018-Feb-17 03:30N 51°57' E 001°19'0 0.0
2018-Feb-17 03:00N 51°57' E 001°19'0 0.0
2018-Feb-17 02:30N 51°57' E 001°19'0 0.0
2018-Feb-17 02:00N 51°57' E 001°19'0 0.0
2018-Feb-17 01:30N 51°57' E 001°19'0 0.0
2018-Feb-17 01:00N 51°57' E 001°19'0 0.0
2018-Feb-17 00:30N 51°57' E 001°19'0 0.0
2018-Feb-17 00:00N 51°57' E 001°19'0 0.0
2018-Feb-16 23:30N 51°57' E 001°19'0 0.0
2018-Feb-16 23:00N 51°57' E 001°19'0 0.0
2018-Feb-16 22:30N 51°57' E 001°19'0 0.0
2018-Feb-16 22:00N 51°57' E 001°19'0 0.0
2018-Feb-16 21:30N 51°57' E 001°19'0 0.0
2018-Feb-16 21:00N 51°57' E 001°19'0 0.0
2018-Feb-16 20:30N 51°57' E 001°19'0 0.0
2018-Feb-16 20:00N 51°57' E 001°19'0 0.0
2018-Feb-16 19:30N 51°57' E 001°19'0 0.0
2018-Feb-16 19:00N 51°57' E 001°19'0 0.0
2018-Feb-16 18:30N 51°57' E 001°19'0 0.0
2018-Feb-16 18:00N 51°57' E 001°19'0 0.0
2018-Feb-16 17:30N 51°57' E 001°19'0 0.0
2018-Feb-16 17:00N 51°57' E 001°19'0 0.0
2018-Feb-16 16:30N 51°57' E 001°19'0 0.0
2018-Feb-16 16:00N 51°57' E 001°19'0 0.3
2018-Feb-16 15:30N 51°57' E 001°19'2 4.6
2018-Feb-16 15:00N 51°56' E 001°22'611.6
2018-Feb-16 14:30N 51°56' E 001°31'611.2
2018-Feb-16 14:00N 51°52' E 001°37'4 8.0
2018-Feb-16 13:30N 51°53' E 001°43'2 3.9
2018-Feb-16 12:58N 51°56' E 001°42'0 0.3
2018-Feb-16 12:28N 51°55' E 001°42'0 0.3
2018-Feb-16 11:58N 51°55' E 001°42'0 0.1
2018-Feb-16 11:28N 51°55' E 001°42'0 0.0
2018-Feb-16 10:58N 51°55' E 001°42'0 0.0
2018-Feb-16 10:28N 51°55' E 001°42'0 0.0
2018-Feb-16 09:58N 51°55' E 001°42'0 0.0
2018-Feb-16 09:28N 51°55' E 001°42'0 0.0
2018-Feb-16 08:58N 51°55' E 001°42'0 0.0
2018-Feb-16 08:28N 51°55' E 001°42'0 0.0
2018-Feb-16 07:58N 51°55' E 001°42'0 0.2
2018-Feb-16 07:28N 51°55' E 001°42'0 0.1
2018-Feb-16 06:58N 51°55' E 001°42'0 0.1
2018-Feb-16 06:28N 51°55' E 001°42'0 0.0
2018-Feb-16 05:58N 51°55' E 001°42'0 0.0
2018-Feb-16 05:28N 51°56' E 001°42'0 0.0
2018-Feb-16 04:58N 51°56' E 001°42'0 0.0
2018-Feb-16 04:28N 51°56' E 001°42'0 0.0
2018-Feb-16 03:58N 51°56' E 001°42'0 0.0
2018-Feb-16 03:28N 51°56' E 001°42'0 0.0
2018-Feb-16 02:58N 51°56' E 001°42'0 0.0
2018-Feb-16 02:28N 51°56' E 001°42'0 0.0
2018-Feb-16 01:58N 51°56' E 001°42'0 0.0
2018-Feb-16 01:28N 51°56' E 001°42'0 0.0
2018-Feb-16 00:58N 51°56' E 001°42'0 0.0
2018-Feb-16 00:28N 51°56' E 001°42'0 0.0
2018-Feb-15 23:58N 51°56' E 001°42'0 0.1
2018-Feb-15 23:28N 51°55' E 001°42'0 0.3
2018-Feb-15 22:58N 51°55' E 001°42'0 0.1
2018-Feb-15 22:28N 51°55' E 001°42'0 0.1
2018-Feb-15 21:58N 51°55' E 001°42'0 0.0
2018-Feb-15 21:28N 51°55' E 001°42'0 0.0
2018-Feb-15 20:58N 51°55' E 001°42'0 0.0
2018-Feb-15 20:28N 51°55' E 001°42'0 0.0
2018-Feb-15 19:58N 51°55' E 001°42'0 0.2
2018-Feb-15 19:28N 51°55' E 001°42'0 0.2
2018-Feb-15 18:58N 51°55' E 001°42'0 0.1
2018-Feb-15 18:28N 51°56' E 001°42'0 0.0
2018-Feb-15 17:58N 51°56' E 001°42'0 0.0
2018-Feb-15 17:28N 51°56' E 001°42'0 0.0
2018-Feb-15 16:58N 51°56' E 001°42'0 0.0
2018-Feb-15 16:28N 51°56' E 001°42'0 0.1
2018-Feb-15 15:58N 51°56' E 001°42'0 0.0
2018-Feb-15 15:28N 51°56' E 001°42'0 0.0
2018-Feb-15 14:58N 51°56' E 001°42'0 0.0
2018-Feb-15 14:28N 51°56' E 001°42'0 0.3
2018-Feb-15 14:01N 51°55' E 001°42'2 4.2
2018-Feb-15 13:31N 51°54' E 001°45'713.1
2018-Feb-15 13:00N 51°48' E 001°49'815.7
2018-Feb-15 12:30N 51°40' E 001°50'714.7
2018-Feb-15 12:00N 51°33' E 001°52'713.6
2018-Feb-15 11:30N 51°28' E 001°59'713.8
2018-Feb-15 11:00N 51°21' E 001°59'816.8
2018-Feb-15 10:30N 51°15' E 001°51'817.0
2018-Feb-15 10:01N 51°08' E 001°43'917.6
2018-Feb-15 09:30N 51°01' E 001°34'918.0
2018-Feb-15 09:00N 50°54' E 001°26'916.9
2018-Feb-15 08:28N 50°45' E 001°23'816.6
2018-Feb-15 08:00N 50°38' E 001°16'2716.6
2018-Feb-15 06:24N 50°27' E 000°38'716.9
2018-Feb-15 06:00N 50°25' E 000°28'816.7
2018-Feb-15 05:30N 50°22' E 000°16'815.8
2018-Feb-15 05:00N 50°18' E 000°05'815.6
2018-Feb-15 04:30N 50°12' W 000°01'610.9
2018-Feb-15 04:00N 50°06' W 000°04'4 7.5
2018-Feb-15 03:30N 50°03' W 000°04'0 0.7
2018-Feb-15 03:00N 50°02' W 000°04'0 0.8
2018-Feb-15 02:30N 50°02' W 000°03'1 1.2
2018-Feb-15 02:00N 50°02' W 000°03'1 1.8
2018-Feb-15 01:30N 50°01' W 000°02'1 2.6
2018-Feb-15 01:00N 50°01' W 000°01'4 7.8
2018-Feb-15 00:30N 50°05' E 000°03'4 7.6
2018-Feb-15 00:01N 50°08' E 000°06'3 5.8
2018-Feb-14 23:30N 50°10' E 000°08'1 1.8
2018-Feb-14 23:00N 50°09' E 000°09'1 2.9
2018-Feb-14 22:30N 50°08' E 000°07'2 3.3
2018-Feb-14 22:00N 50°07' E 000°06'2 3.6
2018-Feb-14 21:30N 50°05' E 000°04'2 4.0
2018-Feb-14 21:00N 50°04' E 000°02'2 4.2
2018-Feb-14 20:30N 50°02' W 000°00'2 4.0
2018-Feb-14 20:00N 50°01' W 000°02'1 2.1
2018-Feb-14 19:31N 49°60' W 000°03'3 5.1
2018-Feb-14 19:00N 50°02' W 000°04'3 6.2
2018-Feb-14 18:30N 50°05' W 000°05'3 6.6
2018-Feb-14 18:00N 50°08' W 000°06'2 4.9
2018-Feb-14 17:30N 50°11' W 000°07'3 5.0
2018-Feb-14 17:00N 50°13' W 000°09'1 2.1
2018-Feb-14 16:30N 50°12' W 000°10'2 3.0
2018-Feb-14 15:59N 50°11' W 000°08'2 3.2
2018-Feb-14 15:30N 50°09' W 000°07'2 3.3
2018-Feb-14 15:00N 50°08' W 000°05'2 3.3
2018-Feb-14 14:30N 50°07' W 000°03'2 3.1
2018-Feb-14 14:00N 50°06' W 000°02'1 3.0
2018-Feb-14 13:30N 50°05' W 000°00'1 2.7
2018-Feb-14 13:00N 50°04' E 000°01'1 2.4
2018-Feb-14 12:30N 50°02' E 000°01'1 2.2
2018-Feb-14 12:00N 50°01' E 000°01'1 1.2
2018-Feb-14 11:30N 50°01' E 000°01'2 3.4
2018-Feb-14 11:00N 50°02' E 000°03'3 6.7
2018-Feb-14 10:30N 50°04' E 000°07'3 6.3
2018-Feb-14 10:00N 50°06' E 000°11'2 4.2
2018-Feb-14 09:30N 50°07' E 000°13'2 3.0
2018-Feb-14 09:00N 50°06' E 000°12'2 3.4
2018-Feb-14 08:30N 50°05' E 000°10'2 3.5
2018-Feb-14 08:00N 50°04' E 000°08'2 3.5
2018-Feb-14 07:30N 50°03' E 000°05'2 3.3
2018-Feb-14 07:00N 50°02' E 000°03'1 2.9
2018-Feb-14 06:30N 50°01' E 000°01'1 2.2
2018-Feb-14 06:00N 50°01' W 000°00'1 1.2
2018-Feb-14 05:30N 50°01' W 000°01'0 0.9
2018-Feb-14 05:00N 50°00' W 000°01'2 3.6
2018-Feb-14 04:30N 49°58' W 000°00'3 5.1
2018-Feb-14 04:00N 49°56' W 000°01'3 5.2
2018-Feb-14 03:30N 49°53' W 000°01'1 2.1
2018-Feb-14 03:00N 49°54' E 000°00'1 1.5
2018-Feb-14 02:30N 49°55' E 000°01'1 1.5
2018-Feb-14 02:00N 49°55' E 000°01'1 1.4
2018-Feb-14 01:30N 49°56' E 000°01'1 1.3
2018-Feb-14 01:00N 49°57' E 000°01'1 1.3
2018-Feb-14 00:30N 49°57' E 000°01'1 1.4
2018-Feb-14 00:00N 49°58' E 000°01'1 1.6
2018-Feb-13 23:30N 49°59' E 000°01'1 1.7
2018-Feb-13 23:00N 49°60' E 000°00'2 4.0
2018-Feb-13 22:30N 49°60' E 000°03'3 6.4
2018-Feb-13 22:00N 49°59' E 000°08'3 5.8
2018-Feb-13 21:30N 49°57' E 000°12'1 2.7
2018-Feb-13 21:00N 49°57' E 000°14'2 3.6
2018-Feb-13 20:30N 49°57' E 000°11'2 3.9
2018-Feb-13 20:00N 49°58' E 000°08'2 4.0
2018-Feb-13 19:30N 49°58' E 000°05'2 4.0
2018-Feb-13 19:00N 49°58' E 000°02'2 3.8
2018-Feb-13 18:30N 49°58' W 000°01'2 3.4
2018-Feb-13 18:00N 49°58' W 000°03'1 2.9
2018-Feb-13 17:30N 49°59' W 000°05'1 2.6
2018-Feb-13 17:00N 50°00' W 000°06'3 5.8
2018-Feb-13 16:30N 50°03' W 000°08'3 5.7
2018-Feb-13 16:00N 50°06' W 000°10'3 5.2
2018-Feb-13 15:31N 50°08' W 000°11'3 5.5
2018-Feb-13 15:00N 50°10' W 000°13'1 1.3
2018-Feb-13 14:30N 50°10' W 000°13'1 2.5
2018-Feb-13 14:00N 50°09' W 000°12'1 2.9
2018-Feb-13 13:30N 50°07' W 000°11'2 3.3
2018-Feb-13 13:00N 50°06' W 000°10'2 3.5
2018-Feb-13 12:30N 50°05' W 000°08'2 3.7
2018-Feb-13 12:00N 50°03' W 000°07'2 3.5
2018-Feb-13 11:30N 50°01' W 000°06'2 3.2
2018-Feb-13 11:00N 49°60' W 000°06'2 4.0
2018-Feb-13 10:30N 50°02' W 000°07'4 7.3
2018-Feb-13 10:00N 50°05' W 000°08'5 9.9
2018-Feb-13 09:30N 50°10' W 000°06'611.4
2018-Feb-13 09:00N 50°15' W 000°03'5 9.8
2018-Feb-13 08:30N 50°19' W 000°07'5 9.1
2018-Feb-13 08:00N 50°18' W 000°14'918.2
2018-Feb-13 07:30N 50°16' W 000°28'918.0
2018-Feb-13 07:00N 50°14' W 000°42'918.3
2018-Feb-13 06:30N 50°11' W 000°55'918.1
2018-Feb-13 06:00N 50°09' W 001°08'918.5
2018-Feb-13 05:30N 50°06' W 001°22'918.5
2018-Feb-13 05:00N 50°04' W 001°37'918.3
2018-Feb-13 04:30N 50°02' W 001°50'918.5
2018-Feb-13 04:00N 49°60' W 002°04'2118.8
2018-Feb-13 02:52N 49°53' W 002°35'818.7
2018-Feb-13 02:27N 49°51' W 002°47'1218.5
2018-Feb-13 01:48N 49°48' W 003°05'518.5
2018-Feb-13 01:31N 49°46' W 003°13'918.4
2018-Feb-13 01:01N 49°44' W 003°27'1218.6
2018-Feb-13 00:23N 49°42' W 003°45'66617.5
2018-Feb-11 10:22N 39°31' W 009°57'719.2
2018-Feb-11 10:01N 39°24' W 009°56'1019.3
2018-Feb-11 09:30N 39°15' W 009°55'1019.1
2018-Feb-11 09:00N 39°05' W 009°54'919.0
2018-Feb-11 08:31N 38°56' W 009°53'1019.1
2018-Feb-11 08:01N 38°46' W 009°51'918.9
2018-Feb-11 07:31N 38°37' W 009°50'1019.1
2018-Feb-11 07:00N 38°27' W 009°48'918.8
2018-Feb-11 06:30N 38°18' W 009°45'918.2
2018-Feb-11 06:01N 38°09' W 009°42'918.3
2018-Feb-11 05:30N 38°00' W 009°40'  

Dump ship's entire track history